Belawan, Indonesia

10:04 AM WIB on December 25, 2014 (GMT +0700)
Polonia | Change Station
CLOSE
Current Station
Airport
Location: Medan,
Elevation: 82 ft
Nearby Weather Stations

Elev 82 ft 3.56 °N, 98.67 °E | Updated 34 minutes ago

Scattered Clouds
Scattered Clouds
81 °F
Feels Like 87 °F
N
5
Wind Variable Wind from WSW

Today
High -- | Low -- °F
--% Chance of Precip.
Yesterday
High -- | Low -- °F
Precip. -- in
6:27 AM 6:22 PM
Waxing Crescent, 12% visible
Pressure 29.83 in
Visibility 4.3 miles
Clouds Scattered Clouds 1800 ft
Heat Index 87 °F
Dew Point 77 °F
Humidity 89%
Rainfall 0.00 in
Snow Depth Not available.
UV 5 out of 12
Pollen Not available.
Air Quality Not available.
Flu Activity Not available.
METAR WIMM 250230Z 25004KT 7000 SCT018 27/25 Q1010 NOSIG

More Conditions Fewer Conditions

Pressure 29.83 in
Visibility 4.3 miles
Clouds Scattered Clouds 1800 ft
Heat Index 87 °F
Dew Point 77 °F
Humidity 89%
Rainfall 0.00 in
Snow Depth Not available.
UV 5 out of 12
Pollen Not available.
Air Quality Not available.
Flu Activity Not available.
METAR WIMM 250230Z 25004KT 7000 SCT018 27/25 Q1010 NOSIG

More Conditions Fewer Conditions

10-Day Weather Forecast

Almanac

Astronomy

Dec. 25, 2014 Rise Set
Actual Time
Civil Twilight
Nautical Twilight
Astronomical Twilight
Moon
Length of Visible Light
Length of Day
Tomorrow will be .
, % of the Moon is Illuminated

Today's Extremes

Country Highs Country Lows

Community

WunderPhotos

Upload Photos

1,780,222 photos uploaded!

WunderBlogs® & News

Nearby

Air Quality

  Air Quality AQ Index Pollutant
Not available.

Snow Depth

Station Depth Elevation

Earthquake Activity

City Distance Mag. Time & Date
Minimum magnitude displayed is 2.5.

Coastal Water Temperatures

Place Temperature

Nearby Weather Stations